createdAt,value
2023-09-15T00:01:43.538Z,87.49
2023-09-15T00:04:13.196Z,88.00
2023-09-15T00:06:41.126Z,88.20
2023-09-15T00:09:15.705Z,88.60
2023-09-15T00:11:43.432Z,87.84
2023-09-15T00:14:12.454Z,88.60
2023-09-15T00:16:41.762Z,88.66
2023-09-15T00:19:15.573Z,89.06
2023-09-15T00:21:44.201Z,88.94
2023-09-15T00:24:11.022Z,88.87
2023-09-15T00:26:39.184Z,88.93
2023-09-15T00:29:05.974Z,88.78
2023-09-15T00:31:33.499Z,88.85
2023-09-15T00:34:00.588Z,88.67
2023-09-15T00:36:27.639Z,88.15
2023-09-15T00:38:55.805Z,87.51
2023-09-15T00:41:22.821Z,86.97
2023-09-15T00:43:49.621Z,87.48
2023-09-15T00:46:16.708Z,87.94
2023-09-15T00:48:43.598Z,87.48
2023-09-15T00:51:10.604Z,86.97
2023-09-15T00:53:40.228Z,87.96
2023-09-15T00:56:09.216Z,87.95
2023-09-15T00:58:40.123Z,87.27
2023-09-15T01:01:07.972Z,87.76
2023-09-15T01:03:36.923Z,88.40
2023-09-15T01:06:04.008Z,88.41
2023-09-15T01:08:31.155Z,89.16
2023-09-15T01:11:02.585Z,89.00
2023-09-15T01:13:29.317Z,88.49
2023-09-15T01:16:02.779Z,88.62
2023-09-15T01:18:46.742Z,88.73
2023-09-15T01:21:22.655Z,88.72
2023-09-15T01:24:10.692Z,88.69
2023-09-15T01:26:48.157Z,88.71
2023-09-15T01:29:42.124Z,88.75
2023-09-15T01:32:11.580Z,89.48
2023-09-15T01:34:38.834Z,88.91
2023-09-15T01:37:06.352Z,89.44
2023-09-15T01:39:33.338Z,89.54
2023-09-15T01:42:01.028Z,89.73
2023-09-15T01:44:28.839Z,89.59
2023-09-15T01:46:55.660Z,89.43
2023-09-15T01:49:23.106Z,89.14
2023-09-15T01:51:50.479Z,89.22
2023-09-15T01:54:17.959Z,89.01
2023-09-15T01:56:45.710Z,88.57
2023-09-15T01:59:13.931Z,89.54
2023-09-15T02:01:40.927Z,88.74
2023-09-15T02:04:08.078Z,88.98
2023-09-15T02:06:35.013Z,89.07
2023-09-15T02:09:01.911Z,89.20
2023-09-15T02:11:28.748Z,88.25
2023-09-15T02:13:55.712Z,88.96
2023-09-15T02:16:22.724Z,88.65
2023-09-15T02:18:51.110Z,89.38
2023-09-15T02:21:18.227Z,89.33
2023-09-15T02:23:44.931Z,88.80
2023-09-15T02:26:12.215Z,88.99
2023-09-15T02:28:39.045Z,89.89
2023-09-15T02:31:06.586Z,90.07
2023-09-15T02:33:36.587Z,89.69
2023-09-15T02:36:04.610Z,89.88
2023-09-15T02:38:31.444Z,89.88
2023-09-15T02:40:58.273Z,89.57
2023-09-15T02:43:25.061Z,89.46
2023-09-15T02:45:52.128Z,89.38
2023-09-15T02:48:19.008Z,89.62
2023-09-15T02:50:46.797Z,89.67
2023-09-15T02:53:13.711Z,89.36
2023-09-15T02:55:40.444Z,88.88
2023-09-15T02:58:07.578Z,89.12
2023-09-15T03:00:34.450Z,88.65
2023-09-15T03:03:01.794Z,89.00
2023-09-15T03:05:28.698Z,89.36
2023-09-15T03:07:55.561Z,89.38
2023-09-15T03:10:22.462Z,89.32
2023-09-15T03:12:49.357Z,89.32
2023-09-15T03:15:17.317Z,88.76
2023-09-15T03:17:44.050Z,88.81
2023-09-15T03:20:20.638Z,88.80
2023-09-15T03:22:48.298Z,88.61
2023-09-15T03:25:15.780Z,88.92
2023-09-15T03:27:42.573Z,88.79
2023-09-15T03:30:09.698Z,88.42
2023-09-15T03:32:37.324Z,89.08
2023-09-15T03:35:06.951Z,89.17
2023-09-15T03:37:34.015Z,89.29
2023-09-15T03:40:01.369Z,89.90
2023-09-15T03:42:28.186Z,89.58
2023-09-15T03:44:55.899Z,89.15
2023-09-15T03:47:22.676Z,89.35
2023-09-15T03:49:49.451Z,89.71
2023-09-15T03:52:16.416Z,89.63
2023-09-15T03:54:43.298Z,89.50
2023-09-15T03:57:10.010Z,89.31
2023-09-15T03:59:37.424Z,90.24
2023-09-15T04:02:05.216Z,89.21
2023-09-15T04:04:32.305Z,90.17
2023-09-15T04:06:59.208Z,90.16
2023-09-15T04:09:26.099Z,89.77
2023-09-15T04:11:53.591Z,90.44
2023-09-15T04:14:20.335Z,90.11
2023-09-15T04:16:47.389Z,90.74
2023-09-15T04:19:14.372Z,90.72
2023-09-15T04:21:41.245Z,90.80
2023-09-15T04:24:09.008Z,90.24
2023-09-15T04:26:35.852Z,90.11
2023-09-15T04:29:02.736Z,90.49
2023-09-15T04:31:29.562Z,90.86
2023-09-15T04:33:56.569Z,90.98
2023-09-15T04:36:23.793Z,90.87
2023-09-15T04:38:50.566Z,91.20
2023-09-15T04:41:17.464Z,91.29
2023-09-15T04:43:44.262Z,91.07
2023-09-15T04:46:11.229Z,90.84
2023-09-15T04:48:38.185Z,90.82
2023-09-15T04:51:04.893Z,90.48
2023-09-15T04:53:31.804Z,91.20
2023-09-15T04:55:59.190Z,91.00
2023-09-15T04:58:25.962Z,90.80
2023-09-15T05:00:52.796Z,90.90
2023-09-15T05:03:19.637Z,90.88
2023-09-15T05:05:52.246Z,91.11
2023-09-15T05:08:19.615Z,91.23
2023-09-15T05:10:50.110Z,91.09
2023-09-15T05:13:17.426Z,90.87
2023-09-15T05:15:44.763Z,90.85
2023-09-15T05:18:11.598Z,90.39
2023-09-15T05:20:38.426Z,90.48
2023-09-15T05:23:05.261Z,90.70
2023-09-15T05:25:32.229Z,90.43
2023-09-15T05:27:59.043Z,90.21
2023-09-15T05:30:25.943Z,90.33
2023-09-15T05:32:52.872Z,90.47
2023-09-15T05:35:19.772Z,90.20
2023-09-15T05:37:46.520Z,89.98
2023-09-15T05:40:13.540Z,89.63
2023-09-15T05:42:40.401Z,89.78
2023-09-15T05:45:07.865Z,89.77
2023-09-15T05:47:34.707Z,89.34
2023-09-15T05:50:04.033Z,89.13
2023-09-15T05:52:31.057Z,88.65
2023-09-15T05:54:58.208Z,88.47
2023-09-15T05:57:25.020Z,88.43
2023-09-15T05:59:51.938Z,87.69
2023-09-15T06:02:21.428Z,87.86
2023-09-15T06:04:50.324Z,88.29
2023-09-15T06:07:19.643Z,87.50
2023-09-15T06:09:48.981Z,86.92
2023-09-15T06:12:15.840Z,87.12
2023-09-15T06:14:42.664Z,86.80
2023-09-15T06:17:09.537Z,86.52
2023-09-15T06:19:38.600Z,86.53
2023-09-15T06:22:06.848Z,86.64
2023-09-15T06:24:33.636Z,86.07
2023-09-15T06:27:00.411Z,86.19
2023-09-15T06:33:40.421Z,85.08
2023-09-15T06:36:07.188Z,85.04
2023-09-15T06:38:35.202Z,84.41
2023-09-15T06:41:02.790Z,84.39
2023-09-15T06:43:29.903Z,84.18
2023-09-15T06:45:56.765Z,83.99
2023-09-15T06:48:23.568Z,83.22
2023-09-15T06:50:50.307Z,83.10
2023-09-15T06:53:17.099Z,82.93
2023-09-15T06:55:43.855Z,82.78
2023-09-15T06:58:12.222Z,83.02
2023-09-15T07:00:39.385Z,82.56
2023-09-15T07:03:06.312Z,82.35
2023-09-15T07:05:33.128Z,82.13
2023-09-15T07:08:00.468Z,81.30
2023-09-15T07:10:27.265Z,79.23
2023-09-15T07:12:53.981Z,77.62
2023-09-15T07:15:21.484Z,76.68
2023-09-15T07:17:48.432Z,76.17
2023-09-15T07:20:15.486Z,76.57
2023-09-15T07:22:42.251Z,77.60
2023-09-15T07:25:09.296Z,78.08
2023-09-15T07:27:36.098Z,77.83
2023-09-15T07:30:03.015Z,78.73
2023-09-15T07:32:29.853Z,78.99
2023-09-15T07:34:56.637Z,76.96
2023-09-15T07:37:23.562Z,76.46
2023-09-15T07:39:50.363Z,75.83
2023-09-15T07:42:17.540Z,76.36
2023-09-15T07:44:44.488Z,73.45
2023-09-15T07:47:13.851Z,72.85
2023-09-15T07:49:40.617Z,73.53
2023-09-15T07:52:07.580Z,73.54
2023-09-15T07:54:34.320Z,73.57
2023-09-15T07:57:01.954Z,71.50
2023-09-15T07:59:28.785Z,70.93
2023-09-15T08:01:55.610Z,71.08
2023-09-15T08:04:22.478Z,71.00
2023-09-15T08:06:50.978Z,70.87
2023-09-15T08:09:18.689Z,70.34
2023-09-15T08:11:46.685Z,70.59
2023-09-15T08:14:13.790Z,69.88
2023-09-15T08:16:40.663Z,68.97
2023-09-15T08:19:08.907Z,69.13
2023-09-15T08:21:35.689Z,68.15
2023-09-15T08:24:02.503Z,67.57
2023-09-15T08:26:38.890Z,68.58
2023-09-15T08:29:12.916Z,66.72
2023-09-15T08:31:40.927Z,66.15
2023-09-15T08:34:07.877Z,66.96
2023-09-15T08:36:34.657Z,65.29
2023-09-15T08:39:01.482Z,64.66
2023-09-15T08:41:36.386Z,64.39
2023-09-15T08:44:04.101Z,64.29
2023-09-15T08:46:32.483Z,64.13
2023-09-15T08:48:59.793Z,64.48
2023-09-15T08:51:27.890Z,63.06
2023-09-15T08:53:57.870Z,61.90
2023-09-15T08:56:25.829Z,60.98
2023-09-15T08:58:53.063Z,61.16
2023-09-15T09:01:20.623Z,60.95
2023-09-15T09:03:47.998Z,61.95
2023-09-15T09:06:17.150Z,61.21
2023-09-15T09:08:48.019Z,60.32
2023-09-15T09:11:16.257Z,61.27
2023-09-15T09:13:44.826Z,60.32
2023-09-15T09:16:15.043Z,58.60
2023-09-15T09:18:42.194Z,58.47
2023-09-15T09:21:09.661Z,58.59
2023-09-15T09:23:36.421Z,58.32
2023-09-15T09:26:12.255Z,59.58
2023-09-15T09:28:40.162Z,58.37
2023-09-15T09:31:07.065Z,58.01
2023-09-15T09:33:34.021Z,57.97
2023-09-15T09:36:13.215Z,58.39
2023-09-15T09:38:46.552Z,58.86
2023-09-15T09:41:14.928Z,59.07
2023-09-15T09:43:44.835Z,59.57
2023-09-15T09:46:12.363Z,56.66
2023-09-15T09:48:41.019Z,56.68
2023-09-15T09:51:07.922Z,57.18
2023-09-15T09:53:36.081Z,55.65
2023-09-15T09:56:06.178Z,55.74
2023-09-15T09:58:34.390Z,55.86
2023-09-15T10:01:01.212Z,54.99
2023-09-15T10:03:28.103Z,55.12
2023-09-15T10:05:54.910Z,56.14
2023-09-15T10:08:22.318Z,56.79
2023-09-15T10:10:51.287Z,55.18
2023-09-15T10:13:19.390Z,55.50
2023-09-15T10:15:47.473Z,53.37
2023-09-15T10:18:17.499Z,52.86
2023-09-15T10:20:46.225Z,53.01
2023-09-15T10:23:16.088Z,54.27
2023-09-15T10:25:45.107Z,54.48
2023-09-15T10:28:16.449Z,54.58
2023-09-15T10:30:56.413Z,54.54
2023-09-15T10:33:32.296Z,54.55
2023-09-15T10:36:06.724Z,53.60
2023-09-15T10:38:36.706Z,52.90
2023-09-15T10:41:06.977Z,53.88
2023-09-15T10:43:33.940Z,50.55
2023-09-15T10:46:05.961Z,51.26
2023-09-15T10:48:39.334Z,50.08
2023-09-15T10:51:07.569Z,49.72
2023-09-15T10:53:48.363Z,49.75
2023-09-15T10:56:17.775Z,51.13
2023-09-15T10:58:49.071Z,50.68
2023-09-15T11:01:17.982Z,50.65
2023-09-15T11:03:45.676Z,49.84
2023-09-15T11:06:15.319Z,50.08
2023-09-15T11:08:42.693Z,53.14
2023-09-15T11:11:11.768Z,50.27
2023-09-15T11:13:40.475Z,49.00
2023-09-15T11:16:08.983Z,47.95
2023-09-15T11:18:37.112Z,47.30
2023-09-15T11:21:04.045Z,47.38
2023-09-15T11:23:30.883Z,47.20
2023-09-15T11:28:38.752Z,49.52
2023-09-15T11:31:11.447Z,49.33
2023-09-15T11:33:42.527Z,50.00
2023-09-15T11:36:09.558Z,48.12
2023-09-15T11:38:37.464Z,46.01
2023-09-15T11:41:06.369Z,46.21
2023-09-15T11:43:33.896Z,47.03
2023-09-15T11:46:01.812Z,48.50
2023-09-15T11:48:30.241Z,47.06
2023-09-15T11:50:59.382Z,46.22
2023-09-15T11:53:26.963Z,45.64
2023-09-15T11:55:53.910Z,44.86
2023-09-15T11:58:21.060Z,44.99
2023-09-15T12:00:48.016Z,44.03
2023-09-15T12:03:15.815Z,44.45
2023-09-15T12:05:43.173Z,44.30
2023-09-15T12:08:11.638Z,45.68
2023-09-15T12:10:39.363Z,44.71
2023-09-15T12:13:06.284Z,44.81
2023-09-15T12:15:34.617Z,44.15
2023-09-15T12:18:04.959Z,43.99
2023-09-15T12:20:35.434Z,44.33
2023-09-15T12:23:11.573Z,44.52
2023-09-15T12:25:39.007Z,46.15
2023-09-15T12:28:07.503Z,43.82
2023-09-15T12:30:37.297Z,43.71
2023-09-15T12:33:08.180Z,45.54
2023-09-15T12:35:40.528Z,44.12
2023-09-15T12:38:07.410Z,44.12
2023-09-15T12:40:35.644Z,44.26
2023-09-15T12:43:02.459Z,42.88
2023-09-15T12:45:29.259Z,42.80
2023-09-15T12:47:56.071Z,44.32
2023-09-15T12:50:24.309Z,45.17
2023-09-15T12:52:51.080Z,46.08
2023-09-15T12:55:18.508Z,46.89
2023-09-15T12:57:45.528Z,46.26
2023-09-15T13:00:12.544Z,45.29
2023-09-15T13:02:39.462Z,43.83
2023-09-15T13:05:06.562Z,43.30
2023-09-15T13:07:33.491Z,45.28
2023-09-15T13:10:00.184Z,45.57
2023-09-15T13:12:27.133Z,44.96
2023-09-15T13:14:53.983Z,44.21
2023-09-15T13:17:21.057Z,45.11
2023-09-15T13:19:47.829Z,44.22
2023-09-15T13:22:14.624Z,43.65
2023-09-15T13:24:41.791Z,42.79
2023-09-15T13:27:08.672Z,44.04
2023-09-15T13:29:35.370Z,42.49
2023-09-15T13:32:02.093Z,42.57
2023-09-15T13:34:28.852Z,42.45
2023-09-15T13:36:55.723Z,44.50
2023-09-15T13:39:22.749Z,44.91
2023-09-15T13:41:50.457Z,44.56
2023-09-15T13:44:17.620Z,43.94
2023-09-15T13:46:44.819Z,41.72
2023-09-15T13:49:12.580Z,41.51
2023-09-15T13:51:43.113Z,43.16
2023-09-15T13:54:11.193Z,41.92
2023-09-15T13:56:38.097Z,41.95
2023-09-15T13:59:05.048Z,44.06
2023-09-15T14:01:32.735Z,43.20
2023-09-15T14:03:59.599Z,42.96
2023-09-15T14:06:26.503Z,41.73
2023-09-15T14:08:53.889Z,42.10
2023-09-15T14:11:20.756Z,44.83
2023-09-15T14:13:47.627Z,43.76
2023-09-15T14:16:14.333Z,47.04
2023-09-15T14:18:41.270Z,46.36
2023-09-15T14:21:08.187Z,44.93
2023-09-15T14:23:34.897Z,42.56
2023-09-15T14:26:02.926Z,44.14
2023-09-15T14:28:30.096Z,43.77
2023-09-15T14:30:56.907Z,45.85
2023-09-15T14:33:23.721Z,46.74
2023-09-15T14:35:50.604Z,47.29
2023-09-15T14:38:17.240Z,48.16
2023-09-15T14:40:44.121Z,48.03
2023-09-15T14:43:10.815Z,48.31
2023-09-15T14:45:37.719Z,45.87
2023-09-15T14:48:05.518Z,45.08
2023-09-15T14:50:34.510Z,44.56
2023-09-15T14:53:01.729Z,43.14
2023-09-15T14:55:28.715Z,43.40
2023-09-15T14:57:55.513Z,44.40
2023-09-15T15:00:22.210Z,46.96
2023-09-15T15:02:49.535Z,43.79
2023-09-15T15:05:16.980Z,43.37
2023-09-15T15:07:43.891Z,43.63
2023-09-15T15:10:11.906Z,45.64
2023-09-15T15:12:40.227Z,45.10
2023-09-15T15:15:07.800Z,48.00
2023-09-15T15:17:34.887Z,47.91
2023-09-15T15:20:01.753Z,46.27
2023-09-15T15:22:28.532Z,47.53
2023-09-15T15:24:55.344Z,48.05
2023-09-15T15:27:22.084Z,46.94
2023-09-15T15:29:49.651Z,48.78
2023-09-15T15:32:16.639Z,49.10
2023-09-15T15:34:43.465Z,50.51
2023-09-15T15:37:10.346Z,50.74
2023-09-15T15:39:37.206Z,51.98
2023-09-15T15:42:04.175Z,52.41
2023-09-15T15:44:31.246Z,54.02
2023-09-15T15:46:59.045Z,52.57
2023-09-15T15:49:25.937Z,51.99
2023-09-15T15:51:52.772Z,52.14
2023-09-15T15:54:19.693Z,51.79
2023-09-15T15:56:47.339Z,49.74
2023-09-15T15:59:14.264Z,51.26
2023-09-15T16:01:40.989Z,50.90
2023-09-15T16:04:07.818Z,50.57
2023-09-15T16:06:34.750Z,50.87
2023-09-15T16:09:01.870Z,52.11
2023-09-15T16:11:28.582Z,53.32
2023-09-15T16:13:55.476Z,53.19
2023-09-15T16:16:22.276Z,52.17
2023-09-15T16:18:49.671Z,54.43
2023-09-15T16:21:16.785Z,54.79
2023-09-15T16:23:43.635Z,55.40
2023-09-15T16:26:10.485Z,55.37
2023-09-15T16:28:37.369Z,55.04
2023-09-15T16:31:04.236Z,53.89
2023-09-15T16:33:31.211Z,53.12
2023-09-15T16:36:03.347Z,54.06
2023-09-15T16:38:30.824Z,54.39
2023-09-15T16:41:01.889Z,54.70
2023-09-15T16:43:31.549Z,55.49
2023-09-15T16:45:59.587Z,56.11
2023-09-15T16:48:27.755Z,56.80
2023-09-15T16:50:54.721Z,57.16
2023-09-15T16:53:21.501Z,57.78
2023-09-15T16:55:49.252Z,58.71
2023-09-15T16:58:17.179Z,59.18
2023-09-15T17:00:44.940Z,59.44
2023-09-15T17:03:12.516Z,60.29
2023-09-15T17:05:39.948Z,60.36
2023-09-15T17:08:07.270Z,61.18
2023-09-15T17:10:38.182Z,61.75
2023-09-15T17:13:05.971Z,61.72
2023-09-15T17:15:33.816Z,61.97
2023-09-15T17:18:01.411Z,62.27
2023-09-15T17:20:28.500Z,62.35
2023-09-15T17:22:55.439Z,62.60
2023-09-15T17:25:22.191Z,62.49
2023-09-15T17:27:49.163Z,63.27
2023-09-15T17:30:17.704Z,63.37
2023-09-15T17:32:45.155Z,64.03
2023-09-15T17:35:11.966Z,64.30
2023-09-15T17:37:39.746Z,64.95
2023-09-15T17:40:08.052Z,65.10
2023-09-15T17:42:35.030Z,65.25
2023-09-15T17:45:02.350Z,65.53
2023-09-15T17:47:29.280Z,66.33
2023-09-15T17:50:10.272Z,66.84
2023-09-15T17:52:40.646Z,67.27
2023-09-15T17:58:40.389Z,67.86
2023-09-15T18:01:07.653Z,68.73
2023-09-15T18:03:35.185Z,68.48
2023-09-15T18:06:12.142Z,69.36
2023-09-15T18:08:38.922Z,69.93
2023-09-15T18:11:05.866Z,69.98
2023-09-15T18:13:32.890Z,70.73
2023-09-15T18:15:59.710Z,70.65
2023-09-15T18:18:26.574Z,71.29
2023-09-15T18:20:54.009Z,71.52
2023-09-15T18:23:20.781Z,71.48
2023-09-15T18:25:47.637Z,72.17
2023-09-15T18:28:14.992Z,72.15
2023-09-15T18:30:42.236Z,72.37
2023-09-15T18:33:09.391Z,72.68
2023-09-15T18:35:39.576Z,72.98
2023-09-15T18:38:06.726Z,73.25
2023-09-15T18:40:35.423Z,73.44
2023-09-15T18:43:02.286Z,73.56
2023-09-15T18:45:32.698Z,73.93
2023-09-15T18:48:00.299Z,73.84
2023-09-15T18:50:27.946Z,74.09
2023-09-15T18:52:54.679Z,74.37
2023-09-15T18:55:22.115Z,74.51
2023-09-15T18:57:49.008Z,74.73
2023-09-15T19:00:16.132Z,74.62
2023-09-15T19:02:43.203Z,74.65
2023-09-15T19:05:10.140Z,74.51
2023-09-15T19:07:37.020Z,75.12
2023-09-15T19:10:07.203Z,74.94
2023-09-15T19:12:34.708Z,75.05
2023-09-15T19:15:01.810Z,75.41
2023-09-15T19:17:32.699Z,75.47
2023-09-15T19:19:59.958Z,75.36
2023-09-15T19:22:26.682Z,75.68
2023-09-15T19:24:53.608Z,75.80
2023-09-15T19:27:20.702Z,75.63
2023-09-15T19:29:47.748Z,75.64
2023-09-15T19:32:14.527Z,75.93
2023-09-15T19:34:42.656Z,76.10
2023-09-15T19:37:11.229Z,76.34
2023-09-15T19:39:40.256Z,76.52
2023-09-15T19:42:07.453Z,76.78
2023-09-15T19:44:34.515Z,76.30
2023-09-15T19:47:01.250Z,76.51
2023-09-15T19:49:28.050Z,76.77
2023-09-15T19:51:54.976Z,76.76
2023-09-15T19:54:22.528Z,77.07
2023-09-15T19:56:53.172Z,76.75
2023-09-15T19:59:20.724Z,76.60
2023-09-15T20:01:47.448Z,76.77
2023-09-15T20:04:16.392Z,76.38
2023-09-15T20:06:43.191Z,76.35
2023-09-15T20:09:11.339Z,76.63
2023-09-15T20:11:38.183Z,76.06
2023-09-15T20:14:05.023Z,76.33
2023-09-15T20:16:31.801Z,76.20
2023-09-15T20:18:58.676Z,76.33
2023-09-15T20:21:26.685Z,76.19
2023-09-15T20:23:53.925Z,75.82
2023-09-15T20:26:20.777Z,76.76
2023-09-15T20:28:48.107Z,77.36
2023-09-15T20:31:17.807Z,77.04
2023-09-15T20:33:44.684Z,77.30
2023-09-15T20:36:11.575Z,76.62
2023-09-15T20:38:38.283Z,76.66
2023-09-15T20:41:07.086Z,77.39
2023-09-15T20:43:34.530Z,77.91
2023-09-15T20:46:01.756Z,78.91
2023-09-15T20:48:35.057Z,79.14
2023-09-15T20:51:01.979Z,79.09
2023-09-15T20:53:29.042Z,79.34
2023-09-15T20:55:55.823Z,79.42
2023-09-15T20:58:22.733Z,79.42
2023-09-15T21:00:53.462Z,79.50
2023-09-15T21:03:20.472Z,79.34
2023-09-15T21:05:55.153Z,79.30
2023-09-15T21:08:22.640Z,79.29
2023-09-15T21:10:51.241Z,79.34
2023-09-15T21:13:18.686Z,79.83
2023-09-15T21:15:45.937Z,79.62
2023-09-15T21:18:14.358Z,80.90
2023-09-15T21:20:44.814Z,80.84
2023-09-15T21:23:12.090Z,80.55
2023-09-15T21:25:43.194Z,80.57
2023-09-15T21:28:10.482Z,80.85
2023-09-15T21:30:37.929Z,80.95
2023-09-15T21:33:05.106Z,81.43
2023-09-15T21:35:32.300Z,81.93
2023-09-15T21:38:02.797Z,81.99
2023-09-15T21:40:29.913Z,81.21
2023-09-15T21:42:57.055Z,81.50
2023-09-15T21:45:24.214Z,81.59
2023-09-15T21:47:51.270Z,82.03
2023-09-15T21:50:18.361Z,81.69
2023-09-15T21:52:45.219Z,81.87
2023-09-15T21:55:11.989Z,82.15
2023-09-15T21:57:38.956Z,82.52
2023-09-15T22:00:27.217Z,82.65
2023-09-15T22:02:58.093Z,82.52
2023-09-15T22:05:31.749Z,82.86
2023-09-15T22:08:03.874Z,83.16
2023-09-15T22:10:31.166Z,83.90
2023-09-15T22:12:58.744Z,83.99
2023-09-15T22:15:25.760Z,83.90
2023-09-15T22:17:52.761Z,83.32
2023-09-15T22:20:20.694Z,83.45
2023-09-15T22:22:49.396Z,83.54
2023-09-15T22:25:18.325Z,83.15
2023-09-15T22:27:45.817Z,83.70
2023-09-15T22:30:13.922Z,84.61
2023-09-15T22:32:41.599Z,85.05
2023-09-15T22:35:11.330Z,84.91
2023-09-15T22:37:38.739Z,84.53
2023-09-15T22:40:10.878Z,84.54
2023-09-15T22:42:40.388Z,84.82
2023-09-15T22:45:13.517Z,84.89
2023-09-15T22:47:40.832Z,84.91
2023-09-15T22:50:08.700Z,84.01
2023-09-15T22:52:35.640Z,84.67
2023-09-15T22:55:02.962Z,84.96
2023-09-15T22:57:30.106Z,84.65
2023-09-15T22:59:56.937Z,85.11
2023-09-15T23:02:24.823Z,85.12
2023-09-15T23:04:54.664Z,85.51
2023-09-15T23:07:21.406Z,84.92
2023-09-15T23:09:48.354Z,85.12
2023-09-15T23:12:15.242Z,85.30
2023-09-15T23:14:42.759Z,85.05
2023-09-15T23:17:10.760Z,84.43
2023-09-15T23:19:37.571Z,84.41
2023-09-15T23:22:05.764Z,85.02
2023-09-15T23:24:32.629Z,85.34
2023-09-15T23:26:59.466Z,85.63
2023-09-15T23:29:26.300Z,85.53
2023-09-15T23:31:53.184Z,85.05
2023-09-15T23:34:20.089Z,85.00
2023-09-15T23:36:47.949Z,84.65
2023-09-15T23:39:18.812Z,84.57
2023-09-15T23:41:45.673Z,85.28
2023-09-15T23:44:13.325Z,84.63
2023-09-15T23:46:40.087Z,84.21
2023-09-15T23:49:07.026Z,84.65
2023-09-15T23:51:33.911Z,84.35
2023-09-15T23:54:00.777Z,84.90
2023-09-15T23:56:28.845Z,85.00
